»·PEaware :: N434DW KSBA-KFAT

N434DW :: KSBA-KFAT

FLIGHT INFORMATION

Flight Status: Arrived
Operator: Privately registered:
United States
More flights under this callsign
Pilot: Matt C. (16379)
Aircraft: CESSNA 172 SKYHAWK
(C172)
More flights by this aircraft type
Origin: KSBA Santa Barbara Mun
United States
Destination: KFAT Fresno Yosemite Intl
United States
More flights between these airports :: More routes between these airports
Route: +
File this flight plan on PilotEdge
Remarks:
Altitude:
(Current/Filed)
9,500ft
Speed:
(Current/Filed)
0kts
Departed: 16-Apr-18 02:32 PM
Arrived: 16-Apr-18 03:09 PM
Distance/Time
Traveled:
141nm/0:36
Distance/Time
To Go:
Arrived

Flight Plot

Page will automatically refresh every two minutes.

Flight plan parsing failed; only flown route is shown


Map Options




Map Legend


Flown Route
Filed Route
Departure Airport
Arrival Airport
Navaid (VOR, NDB)
Fix

Horizontal Profiles

Position Reports

Time Latitude Longitude Heading Altitude Ground
Speed
16-Apr-18 14:13 34.432911 -119.834896 171 17ft 0kts
16-Apr-18 14:14 34.432911 -119.834896 171 17ft 0kts
16-Apr-18 14:15 34.432911 -119.834896 171 17ft 0kts
16-Apr-18 14:16 34.432911 -119.834896 171 17ft 0kts
16-Apr-18 14:17 34.432911 -119.834896 171 17ft 0kts
16-Apr-18 14:18 34.432911 -119.834896 171 17ft 0kts
16-Apr-18 14:19 34.432911 -119.834896 171 17ft 0kts
16-Apr-18 14:20 34.432911 -119.834896 171 17ft 0kts
16-Apr-18 14:21 34.432911 -119.834896 171 17ft 0kts
16-Apr-18 14:22 34.432911 -119.834896 171 17ft 0kts
16-Apr-18 14:23 34.432911 -119.834896 171 17ft 0kts
16-Apr-18 14:24 34.432911 -119.834896 171 17ft 0kts
16-Apr-18 14:25 34.432911 -119.834896 171 17ft 0kts
16-Apr-18 14:26 34.431999 -119.835347 190 17ft 13kts
16-Apr-18 14:27 34.428821 -119.835202 170 17ft 0kts
16-Apr-18 14:28 34.428821 -119.835202 170 17ft 0kts
16-Apr-18 14:29 34.428821 -119.835202 170 17ft 0kts
16-Apr-18 14:30 34.428106 -119.835080 211 17ft 18kts
16-Apr-18 14:31 34.426691 -119.855389 259 796ft 66kts
16-Apr-18 14:32 34.424469 -119.875784 257 1524ft 83kts
16-Apr-18 14:33 34.419519 -119.907997 269 1649ft 108kts
16-Apr-18 14:34 34.420330 -119.941373 260 1163ft 92kts
16-Apr-18 14:35 34.419233 -119.971039 297 1468ft 80kts
16-Apr-18 14:36 34.436725 -119.984315 322 2465ft 76kts
16-Apr-18 14:37 34.452670 -120.000529 328 3395ft 73kts
16-Apr-18 14:38 34.470866 -120.012134 335 4252ft 73kts
16-Apr-18 14:39 34.496723 -120.013119 6 5273ft 74kts
16-Apr-18 14:40 34.539370 -120.011373 356 6734ft 76kts
16-Apr-18 14:41 34.584338 -120.003776 11 7785ft 100kts
16-Apr-18 14:42 34.644497 -119.989409 9 8011ft 125kts
16-Apr-18 14:43 34.755138 -119.967901 8 8006ft 128kts
16-Apr-18 14:44 34.896321 -119.944335 6 8013ft 128kts
16-Apr-18 14:45 35.037751 -119.924517 5 8006ft 128kts
16-Apr-18 14:46 35.177544 -119.906456 5 8011ft 128kts
16-Apr-18 14:47 35.320442 -119.889535 4 7887ft 128kts
16-Apr-18 14:48 35.462883 -119.874283 4 7891ft 128kts
16-Apr-18 14:49 35.604693 -119.859054 4 7888ft 128kts
16-Apr-18 14:50 35.747252 -119.843615 4 7892ft 128kts
16-Apr-18 14:51 35.889335 -119.828126 4 7888ft 128kts
16-Apr-18 14:52 35.961930 -119.821488 1 8514ft 110kts
16-Apr-18 14:53 35.993088 -119.822661 356 8778ft 121kts
16-Apr-18 14:54 36.027774 -119.819072 12 8661ft 134kts
16-Apr-18 14:55 36.064525 -119.816328 358 8575ft 126kts
16-Apr-18 14:56 36.115376 -119.809944 6 8477ft 129kts
16-Apr-18 14:57 36.186231 -119.799019 6 8479ft 128kts
16-Apr-18 14:58 36.263339 -119.760260 48 8277ft 130kts
16-Apr-18 14:59 36.389382 -119.662863 7 6114ft 147kts
16-Apr-18 15:00 36.454939 -119.662718 355 4471ft 141kts
16-Apr-18 15:01 36.493647 -119.668438 350 3440ft 142kts
16-Apr-18 15:02 36.531401 -119.673990 1 2648ft 135kts
16-Apr-18 15:03 36.599391 -119.650985 14 1880ft 123kts
16-Apr-18 15:04 36.665456 -119.626504 15 1117ft 123kts
16-Apr-18 15:05 36.726197 -119.641631 341 1082ft 116kts
16-Apr-18 15:06 36.751943 -119.676993 303 1034ft 91kts
16-Apr-18 15:07 36.763681 -119.698417 302 624ft 63kts
16-Apr-18 15:08 36.771972 -119.713170 305 338ft 12kts
16-Apr-18 15:09 36.772485 -119.715875 216 338ft 0kts
16-Apr-18 15:10 36.772485 -119.715875 216 338ft 0kts
16-Apr-18 15:11 36.772485 -119.715875 216 338ft 0kts
16-Apr-18 15:12 36.772250 -119.717253 309 338ft 21kts
16-Apr-18 15:13 36.774640 -119.723345 291 338ft 24kts

Navigation Log

Ident Type
Flight plan parsing failed, navigation log unavailable